sensor_id;sensor_type;location;lat;lon;timestamp;P1;durP1;ratioP1;P2;durP2;ratioP2
26774;SDS011;14362;51.902;7.626;2022-12-24T00:02:47;23.38;;;6.18;;
26774;SDS011;14362;51.902;7.626;2022-12-24T00:06:48;16.77;;;6.45;;
26774;SDS011;14362;51.902;7.626;2022-12-24T00:10:51;21.27;;;6.30;;
26774;SDS011;14362;51.902;7.626;2022-12-24T00:14:53;17.35;;;5.70;;
26774;SDS011;14362;51.902;7.626;2022-12-24T00:18:56;21.60;;;6.22;;
26774;SDS011;14362;51.902;7.626;2022-12-24T00:22:57;21.85;;;6.22;;
26774;SDS011;14362;51.902;7.626;2022-12-24T00:26:58;19.90;;;6.18;;
26774;SDS011;14362;51.902;7.626;2022-12-24T00:31:05;22.92;;;6.15;;
26774;SDS011;14362;51.902;7.626;2022-12-24T00:35:09;22.40;;;6.65;;
26774;SDS011;14362;51.902;7.626;2022-12-24T00:39:11;21.15;;;6.47;;
26774;SDS011;14362;51.902;7.626;2022-12-24T00:43:12;24.40;;;6.55;;
26774;SDS011;14362;51.902;7.626;2022-12-24T00:47:13;23.60;;;8.35;;
26774;SDS011;14362;51.902;7.626;2022-12-24T00:51:16;31.15;;;8.35;;
26774;SDS011;14362;51.902;7.626;2022-12-24T00:55:18;28.23;;;8.02;;
26774;SDS011;14362;51.902;7.626;2022-12-24T00:59:20;30.67;;;8.23;;
26774;SDS011;14362;51.902;7.626;2022-12-24T01:03:21;27.25;;;8.15;;
26774;SDS011;14362;51.902;7.626;2022-12-24T01:07:24;23.23;;;7.50;;
26774;SDS011;14362;51.902;7.626;2022-12-24T01:11:26;36.20;;;8.85;;
26774;SDS011;14362;51.902;7.626;2022-12-24T01:15:27;23.63;;;7.63;;
26774;SDS011;14362;51.902;7.626;2022-12-24T01:19:29;26.65;;;8.40;;
26774;SDS011;14362;51.902;7.626;2022-12-24T01:23:31;33.78;;;8.90;;
26774;SDS011;14362;51.902;7.626;2022-12-24T01:27:33;31.25;;;8.13;;
26774;SDS011;14362;51.902;7.626;2022-12-24T01:31:34;24.85;;;8.48;;
26774;SDS011;14362;51.902;7.626;2022-12-24T01:35:37;32.45;;;8.43;;
26774;SDS011;14362;51.902;7.626;2022-12-24T01:39:40;29.58;;;8.43;;
26774;SDS011;14362;51.902;7.626;2022-12-24T01:43:42;26.48;;;8.73;;
26774;SDS011;14362;51.902;7.626;2022-12-24T01:47:42;29.00;;;8.18;;
26774;SDS011;14362;51.902;7.626;2022-12-24T01:51:45;28.40;;;7.55;;
26774;SDS011;14362;51.902;7.626;2022-12-24T01:55:50;33.03;;;9.32;;
26774;SDS011;14362;51.902;7.626;2022-12-24T01:59:53;39.92;;;9.52;;
26774;SDS011;14362;51.902;7.626;2022-12-24T02:03:57;32.17;;;9.35;;
26774;SDS011;14362;51.902;7.626;2022-12-24T02:07:59;30.75;;;8.10;;
26774;SDS011;14362;51.902;7.626;2022-12-24T02:12:05;30.77;;;7.72;;
26774;SDS011;14362;51.902;7.626;2022-12-24T02:16:11;34.43;;;8.73;;
26774;SDS011;14362;51.902;7.626;2022-12-24T02:24:56;35.72;;;7.70;;
26774;SDS011;14362;51.902;7.626;2022-12-24T02:29:17;39.42;;;8.52;;
26774;SDS011;14362;51.902;7.626;2022-12-24T02:33:37;35.10;;;8.60;;
26774;SDS011;14362;51.902;7.626;2022-12-24T02:37:46;41.17;;;7.70;;
26774;SDS011;14362;51.902;7.626;2022-12-24T02:41:52;34.35;;;7.45;;
26774;SDS011;14362;51.902;7.626;2022-12-24T02:46:06;38.90;;;8.85;;
26774;SDS011;14362;51.902;7.626;2022-12-24T02:54:15;30.83;;;7.60;;
26774;SDS011;14362;51.902;7.626;2022-12-24T02:58:20;36.95;;;8.05;;
26774;SDS011;14362;51.902;7.626;2022-12-24T03:02:36;29.83;;;8.40;;
26774;SDS011;14362;51.902;7.626;2022-12-24T03:06:54;27.65;;;7.25;;
26774;SDS011;14362;51.902;7.626;2022-12-24T03:11:01;27.58;;;7.47;;
26774;SDS011;14362;51.902;7.626;2022-12-24T03:19:07;30.23;;;8.25;;
26774;SDS011;14362;51.902;7.626;2022-12-24T03:23:10;30.50;;;7.93;;
26774;SDS011;14362;51.902;7.626;2022-12-24T03:27:12;34.95;;;8.95;;
26774;SDS011;14362;51.902;7.626;2022-12-24T03:31:15;36.67;;;8.38;;
26774;SDS011;14362;51.902;7.626;2022-12-24T03:35:17;30.60;;;8.25;;
26774;SDS011;14362;51.902;7.626;2022-12-24T03:39:20;38.75;;;8.45;;
26774;SDS011;14362;51.902;7.626;2022-12-24T03:43:22;44.47;;;8.45;;
26774;SDS011;14362;51.902;7.626;2022-12-24T03:47:23;34.35;;;7.63;;
26774;SDS011;14362;51.902;7.626;2022-12-24T03:51:25;33.17;;;7.97;;
26774;SDS011;14362;51.902;7.626;2022-12-24T03:55:28;34.03;;;7.97;;
26774;SDS011;14362;51.902;7.626;2022-12-24T03:59:30;33.40;;;8.60;;
26774;SDS011;14362;51.902;7.626;2022-12-24T04:03:31;36.92;;;7.70;;
26774;SDS011;14362;51.902;7.626;2022-12-24T04:07:33;36.97;;;8.32;;
26774;SDS011;14362;51.902;7.626;2022-12-24T04:11:36;32.67;;;7.82;;
26774;SDS011;14362;51.902;7.626;2022-12-24T04:15:37;34.13;;;7.22;;
26774;SDS011;14362;51.902;7.626;2022-12-24T04:19:38;31.42;;;7.65;;
26774;SDS011;14362;51.902;7.626;2022-12-24T04:23:40;31.65;;;9.05;;
26774;SDS011;14362;51.902;7.626;2022-12-24T04:27:43;35.95;;;8.50;;
26774;SDS011;14362;51.902;7.626;2022-12-24T04:31:45;31.60;;;8.80;;
26774;SDS011;14362;51.902;7.626;2022-12-24T04:35:46;33.17;;;8.55;;
26774;SDS011;14362;51.902;7.626;2022-12-24T04:39:47;26.10;;;7.97;;
26774;SDS011;14362;51.902;7.626;2022-12-24T04:43:50;33.65;;;8.70;;
26774;SDS011;14362;51.902;7.626;2022-12-24T04:47:53;30.20;;;8.35;;
26774;SDS011;14362;51.902;7.626;2022-12-24T04:51:55;34.03;;;9.05;;
26774;SDS011;14362;51.902;7.626;2022-12-24T04:55:56;32.92;;;8.07;;
26774;SDS011;14362;51.902;7.626;2022-12-24T04:59:59;35.10;;;8.55;;
26774;SDS011;14362;51.902;7.626;2022-12-24T05:04:01;34.13;;;8.70;;
26774;SDS011;14362;51.902;7.626;2022-12-24T05:08:02;32.92;;;9.15;;
26774;SDS011;14362;51.902;7.626;2022-12-24T05:12:04;34.53;;;9.80;;
26774;SDS011;14362;51.902;7.626;2022-12-24T05:16:07;36.63;;;9.63;;
26774;SDS011;14362;51.902;7.626;2022-12-24T05:20:09;40.70;;;10.40;;
26774;SDS011;14362;51.902;7.626;2022-12-24T05:24:11;33.80;;;11.43;;
26774;SDS011;14362;51.902;7.626;2022-12-24T05:28:26;40.60;;;10.70;;
26774;SDS011;14362;51.902;7.626;2022-12-24T05:32:29;35.90;;;10.68;;
26774;SDS011;14362;51.902;7.626;2022-12-24T05:36:30;33.00;;;9.98;;
26774;SDS011;14362;51.902;7.626;2022-12-24T05:40:32;42.95;;;9.55;;
26774;SDS011;14362;51.902;7.626;2022-12-24T05:44:33;37.33;;;10.93;;
26774;SDS011;14362;51.902;7.626;2022-12-24T05:48:36;37.03;;;11.52;;
26774;SDS011;14362;51.902;7.626;2022-12-24T05:52:38;37.63;;;10.20;;
26774;SDS011;14362;51.902;7.626;2022-12-24T05:56:39;34.95;;;10.48;;
26774;SDS011;14362;51.902;7.626;2022-12-24T06:00:41;27.42;;;8.95;;
26774;SDS011;14362;51.902;7.626;2022-12-24T06:04:43;32.35;;;9.20;;
26774;SDS011;14362;51.902;7.626;2022-12-24T06:08:45;28.42;;;9.52;;
26774;SDS011;14362;51.902;7.626;2022-12-24T06:12:47;30.83;;;9.52;;
26774;SDS011;14362;51.902;7.626;2022-12-24T06:16:48;29.05;;;9.32;;
26774;SDS011;14362;51.902;7.626;2022-12-24T06:20:51;31.35;;;8.93;;
26774;SDS011;14362;51.902;7.626;2022-12-24T06:24:54;38.30;;;10.43;;
26774;SDS011;14362;51.902;7.626;2022-12-24T06:28:55;34.05;;;9.93;;
26774;SDS011;14362;51.902;7.626;2022-12-24T06:32:57;36.08;;;8.55;;
26774;SDS011;14362;51.902;7.626;2022-12-24T06:36:59;36.83;;;10.40;;
26774;SDS011;14362;51.902;7.626;2022-12-24T06:41:03;29.27;;;8.93;;
26774;SDS011;14362;51.902;7.626;2022-12-24T06:45:06;42.35;;;9.38;;
26774;SDS011;14362;51.902;7.626;2022-12-24T06:49:08;40.78;;;9.63;;
26774;SDS011;14362;51.902;7.626;2022-12-24T06:53:11;34.13;;;9.10;;
26774;SDS011;14362;51.902;7.626;2022-12-24T06:57:12;36.67;;;10.13;;
26774;SDS011;14362;51.902;7.626;2022-12-24T07:01:14;28.05;;;9.68;;
26774;SDS011;14362;51.902;7.626;2022-12-24T07:05:16;39.28;;;9.82;;
26774;SDS011;14362;51.902;7.626;2022-12-24T07:09:19;31.50;;;9.10;;
26774;SDS011;14362;51.902;7.626;2022-12-24T07:13:21;35.63;;;10.57;;
26774;SDS011;14362;51.902;7.626;2022-12-24T07:17:22;36.88;;;9.15;;
26774;SDS011;14362;51.902;7.626;2022-12-24T07:21:23;32.22;;;10.10;;
26774;SDS011;14362;51.902;7.626;2022-12-24T07:25:26;29.67;;;9.82;;
26774;SDS011;14362;51.902;7.626;2022-12-24T07:29:28;38.42;;;9.40;;
26774;SDS011;14362;51.902;7.626;2022-12-24T07:33:29;29.33;;;9.20;;
26774;SDS011;14362;51.902;7.626;2022-12-24T07:37:31;31.80;;;9.65;;
26774;SDS011;14362;51.902;7.626;2022-12-24T07:41:33;32.30;;;10.00;;
26774;SDS011;14362;51.902;7.626;2022-12-24T07:45:35;35.55;;;10.80;;
26774;SDS011;14362;51.902;7.626;2022-12-24T07:49:36;40.88;;;9.95;;
26774;SDS011;14362;51.902;7.626;2022-12-24T07:53:38;32.30;;;9.00;;
26774;SDS011;14362;51.902;7.626;2022-12-24T07:57:47;31.25;;;8.85;;
26774;SDS011;14362;51.902;7.626;2022-12-24T08:01:49;27.05;;;8.30;;
26774;SDS011;14362;51.902;7.626;2022-12-24T08:05:50;33.20;;;8.23;;
26774;SDS011;14362;51.902;7.626;2022-12-24T08:09:52;37.60;;;9.50;;
26774;SDS011;14362;51.902;7.626;2022-12-24T08:13:55;25.33;;;8.88;;
26774;SDS011;14362;51.902;7.626;2022-12-24T08:17:56;28.17;;;8.68;;
26774;SDS011;14362;51.902;7.626;2022-12-24T08:21:58;29.50;;;9.23;;
26774;SDS011;14362;51.902;7.626;2022-12-24T08:25:59;31.30;;;9.45;;
26774;SDS011;14362;51.902;7.626;2022-12-24T08:30:02;30.73;;;9.95;;
26774;SDS011;14362;51.902;7.626;2022-12-24T08:34:05;29.27;;;8.98;;
26774;SDS011;14362;51.902;7.626;2022-12-24T08:38:08;30.27;;;10.05;;
26774;SDS011;14362;51.902;7.626;2022-12-24T08:42:09;26.08;;;9.02;;
26774;SDS011;14362;51.902;7.626;2022-12-24T08:46:12;35.30;;;10.23;;
26774;SDS011;14362;51.902;7.626;2022-12-24T08:50:13;27.98;;;9.02;;
26774;SDS011;14362;51.902;7.626;2022-12-24T08:54:15;27.17;;;9.50;;
26774;SDS011;14362;51.902;7.626;2022-12-24T08:58:16;31.98;;;9.27;;
26774;SDS011;14362;51.902;7.626;2022-12-24T09:02:19;29.83;;;8.95;;
26774;SDS011;14362;51.902;7.626;2022-12-24T09:06:21;29.45;;;8.93;;
26774;SDS011;14362;51.902;7.626;2022-12-24T09:10:22;37.33;;;9.43;;
26774;SDS011;14362;51.902;7.626;2022-12-24T09:14:24;29.30;;;9.00;;
26774;SDS011;14362;51.902;7.626;2022-12-24T09:18:27;24.40;;;9.10;;
26774;SDS011;14362;51.902;7.626;2022-12-24T09:22:29;29.48;;;8.65;;
26774;SDS011;14362;51.902;7.626;2022-12-24T09:26:30;31.52;;;8.95;;
26774;SDS011;14362;51.902;7.626;2022-12-24T09:30:32;31.60;;;10.02;;
26774;SDS011;14362;51.902;7.626;2022-12-24T09:34:35;26.17;;;7.93;;
26774;SDS011;14362;51.902;7.626;2022-12-24T09:38:37;28.92;;;8.95;;
26774;SDS011;14362;51.902;7.626;2022-12-24T09:42:41;29.73;;;9.50;;
26774;SDS011;14362;51.902;7.626;2022-12-24T09:46:48;26.20;;;7.90;;
26774;SDS011;14362;51.902;7.626;2022-12-24T09:50:55;26.35;;;8.02;;
26774;SDS011;14362;51.902;7.626;2022-12-24T09:55:04;23.05;;;8.65;;
26774;SDS011;14362;51.902;7.626;2022-12-24T09:59:16;20.30;;;7.05;;
26774;SDS011;14362;51.902;7.626;2022-12-24T10:03:20;27.17;;;8.23;;
26774;SDS011;14362;51.902;7.626;2022-12-24T10:07:27;27.73;;;7.30;;
26774;SDS011;14362;51.902;7.626;2022-12-24T10:11:40;26.10;;;7.07;;
26774;SDS011;14362;51.902;7.626;2022-12-24T10:15:49;29.80;;;7.97;;
26774;SDS011;14362;51.902;7.626;2022-12-24T10:19:59;25.50;;;7.70;;
26774;SDS011;14362;51.902;7.626;2022-12-24T10:24:11;29.40;;;9.52;;
26774;SDS011;14362;51.902;7.626;2022-12-24T10:28:21;23.38;;;7.95;;
26774;SDS011;14362;51.902;7.626;2022-12-24T10:32:29;27.90;;;8.63;;
26774;SDS011;14362;51.902;7.626;2022-12-24T10:36:33;32.23;;;9.13;;
26774;SDS011;14362;51.902;7.626;2022-12-24T10:40:37;26.73;;;8.38;;
26774;SDS011;14362;51.902;7.626;2022-12-24T10:44:42;39.65;;;9.40;;
26774;SDS011;14362;51.902;7.626;2022-12-24T10:48:51;29.67;;;9.48;;
26774;SDS011;14362;51.902;7.626;2022-12-24T10:52:58;25.65;;;9.15;;
26774;SDS011;14362;51.902;7.626;2022-12-24T10:57:18;43.58;;;10.98;;
26774;SDS011;14362;51.902;7.626;2022-12-24T11:05:45;26.80;;;8.98;;
26774;SDS011;14362;51.902;7.626;2022-12-24T11:09:53;30.42;;;9.15;;
26774;SDS011;14362;51.902;7.626;2022-12-24T11:13:57;34.08;;;9.65;;
26774;SDS011;14362;51.902;7.626;2022-12-24T11:17:59;26.70;;;8.60;;
26774;SDS011;14362;51.902;7.626;2022-12-24T11:22:04;23.80;;;8.93;;
26774;SDS011;14362;51.902;7.626;2022-12-24T11:26:07;25.40;;;8.03;;
26774;SDS011;14362;51.902;7.626;2022-12-24T11:30:25;33.03;;;10.10;;
26774;SDS011;14362;51.902;7.626;2022-12-24T11:34:29;33.13;;;8.60;;
26774;SDS011;14362;51.902;7.626;2022-12-24T11:38:33;27.38;;;8.07;;
26774;SDS011;14362;51.902;7.626;2022-12-24T11:42:35;23.17;;;8.05;;
26774;SDS011;14362;51.902;7.626;2022-12-24T11:46:41;22.20;;;7.75;;
26774;SDS011;14362;51.902;7.626;2022-12-24T11:50:45;25.85;;;7.22;;
26774;SDS011;14362;51.902;7.626;2022-12-24T11:55:00;25.10;;;7.55;;
26774;SDS011;14362;51.902;7.626;2022-12-24T11:59:14;27.60;;;9.15;;
26774;SDS011;14362;51.902;7.626;2022-12-24T12:03:29;30.60;;;7.95;;
26774;SDS011;14362;51.902;7.626;2022-12-24T12:07:35;30.10;;;8.00;;
26774;SDS011;14362;51.902;7.626;2022-12-24T12:11:39;25.05;;;7.95;;
26774;SDS011;14362;51.902;7.626;2022-12-24T12:15:44;27.75;;;8.55;;
26774;SDS011;14362;51.902;7.626;2022-12-24T12:19:53;21.95;;;7.63;;
26774;SDS011;14362;51.902;7.626;2022-12-24T12:23:57;30.60;;;8.25;;
26774;SDS011;14362;51.902;7.626;2022-12-24T12:28:05;21.90;;;6.97;;
26774;SDS011;14362;51.902;7.626;2022-12-24T12:32:15;23.35;;;7.22;;
26774;SDS011;14362;51.902;7.626;2022-12-24T12:36:29;30.58;;;8.68;;
26774;SDS011;14362;51.902;7.626;2022-12-24T12:40:58;31.38;;;8.18;;
26774;SDS011;14362;51.902;7.626;2022-12-24T12:45:15;18.38;;;6.32;;
26774;SDS011;14362;51.902;7.626;2022-12-24T12:49:32;23.33;;;6.55;;
26774;SDS011;14362;51.902;7.626;2022-12-24T12:53:47;24.58;;;7.80;;
26774;SDS011;14362;51.902;7.626;2022-12-24T12:58:09;31.50;;;7.78;;
26774;SDS011;14362;51.902;7.626;2022-12-24T13:02:21;26.10;;;7.97;;
26774;SDS011;14362;51.902;7.626;2022-12-24T13:11:40;24.98;;;7.95;;
26774;SDS011;14362;51.902;7.626;2022-12-24T13:15:56;28.98;;;7.75;;
26774;SDS011;14362;51.902;7.626;2022-12-24T13:20:17;19.38;;;7.15;;
26774;SDS011;14362;51.902;7.626;2022-12-24T13:24:24;31.10;;;8.20;;
26774;SDS011;14362;51.902;7.626;2022-12-24T13:28:35;21.08;;;7.72;;
26774;SDS011;14362;51.902;7.626;2022-12-24T13:32:48;24.52;;;7.85;;
26774;SDS011;14362;51.902;7.626;2022-12-24T13:37:04;19.48;;;7.32;;
26774;SDS011;14362;51.902;7.626;2022-12-24T13:45:58;28.00;;;7.75;;
26774;SDS011;14362;51.902;7.626;2022-12-24T13:50:11;25.90;;;6.63;;
26774;SDS011;14362;51.902;7.626;2022-12-24T13:54:21;25.05;;;6.03;;
26774;SDS011;14362;51.902;7.626;2022-12-24T13:58:28;21.15;;;6.40;;
26774;SDS011;14362;51.902;7.626;2022-12-24T14:02:33;30.17;;;8.15;;
26774;SDS011;14362;51.902;7.626;2022-12-24T14:06:40;26.08;;;8.32;;
26774;SDS011;14362;51.902;7.626;2022-12-24T14:10:42;23.00;;;7.07;;
26774;SDS011;14362;51.902;7.626;2022-12-24T14:14:56;26.23;;;7.22;;
26774;SDS011;14362;51.902;7.626;2022-12-24T14:18:59;22.00;;;7.53;;
26774;SDS011;14362;51.902;7.626;2022-12-24T14:23:03;23.73;;;8.77;;
26774;SDS011;14362;51.902;7.626;2022-12-24T14:27:06;17.98;;;6.78;;
26774;SDS011;14362;51.902;7.626;2022-12-24T14:31:15;25.20;;;7.68;;
26774;SDS011;14362;51.902;7.626;2022-12-24T14:35:20;21.52;;;10.07;;
26774;SDS011;14362;51.902;7.626;2022-12-24T14:39:25;16.40;;;6.85;;
26774;SDS011;14362;51.902;7.626;2022-12-24T14:43:35;21.42;;;6.78;;
26774;SDS011;14362;51.902;7.626;2022-12-24T14:47:50;21.48;;;7.45;;
26774;SDS011;14362;51.902;7.626;2022-12-24T14:52:02;23.35;;;7.50;;
26774;SDS011;14362;51.902;7.626;2022-12-24T14:56:13;23.38;;;8.00;;
26774;SDS011;14362;51.902;7.626;2022-12-24T15:00:17;26.08;;;8.45;;
26774;SDS011;14362;51.902;7.626;2022-12-24T15:04:20;29.25;;;8.45;;
26774;SDS011;14362;51.902;7.626;2022-12-24T15:08:24;23.30;;;8.13;;
26774;SDS011;14362;51.902;7.626;2022-12-24T15:12:29;26.48;;;9.07;;
26774;SDS011;14362;51.902;7.626;2022-12-24T15:16:32;28.90;;;8.80;;
26774;SDS011;14362;51.902;7.626;2022-12-24T15:20:36;20.00;;;8.13;;
26774;SDS011;14362;51.902;7.626;2022-12-24T15:24:44;26.42;;;8.43;;
26774;SDS011;14362;51.902;7.626;2022-12-24T15:28:46;29.30;;;8.80;;
26774;SDS011;14362;51.902;7.626;2022-12-24T15:32:48;25.45;;;8.38;;
26774;SDS011;14362;51.902;7.626;2022-12-24T15:36:51;26.65;;;9.65;;
26774;SDS011;14362;51.902;7.626;2022-12-24T15:40:54;20.15;;;8.77;;
26774;SDS011;14362;51.902;7.626;2022-12-24T15:44:57;21.15;;;8.43;;
26774;SDS011;14362;51.902;7.626;2022-12-24T15:49:01;25.48;;;11.30;;
26774;SDS011;14362;51.902;7.626;2022-12-24T15:53:04;27.52;;;11.27;;
26774;SDS011;14362;51.902;7.626;2022-12-24T15:57:13;22.20;;;8.65;;
26774;SDS011;14362;51.902;7.626;2022-12-24T16:01:26;28.27;;;8.65;;
26774;SDS011;14362;51.902;7.626;2022-12-24T16:05:29;26.50;;;9.73;;
26774;SDS011;14362;51.902;7.626;2022-12-24T16:09:41;25.30;;;9.48;;
26774;SDS011;14362;51.902;7.626;2022-12-24T16:13:56;20.70;;;9.73;;
26774;SDS011;14362;51.902;7.626;2022-12-24T16:18:04;23.98;;;10.90;;
26774;SDS011;14362;51.902;7.626;2022-12-24T16:22:05;26.52;;;10.90;;
26774;SDS011;14362;51.902;7.626;2022-12-24T16:26:21;25.52;;;10.32;;
26774;SDS011;14362;51.902;7.626;2022-12-24T16:30:24;21.67;;;9.15;;
26774;SDS011;14362;51.902;7.626;2022-12-24T16:34:26;24.90;;;10.73;;
26774;SDS011;14362;51.902;7.626;2022-12-24T16:38:29;29.38;;;11.13;;
26774;SDS011;14362;51.902;7.626;2022-12-24T16:42:50;22.83;;;10.93;;
26774;SDS011;14362;51.902;7.626;2022-12-24T16:47:11;29.25;;;12.30;;
26774;SDS011;14362;51.902;7.626;2022-12-24T16:51:15;28.60;;;11.23;;
26774;SDS011;14362;51.902;7.626;2022-12-24T16:55:16;28.23;;;11.25;;
26774;SDS011;14362;51.902;7.626;2022-12-24T16:59:19;28.15;;;11.77;;
26774;SDS011;14362;51.902;7.626;2022-12-24T17:03:23;25.27;;;12.00;;
26774;SDS011;14362;51.902;7.626;2022-12-24T17:07:24;29.50;;;12.88;;
26774;SDS011;14362;51.902;7.626;2022-12-24T17:11:26;26.05;;;14.80;;
26774;SDS011;14362;51.902;7.626;2022-12-24T17:15:27;44.80;;;21.65;;
26774;SDS011;14362;51.902;7.626;2022-12-24T17:19:30;32.92;;;16.13;;
26774;SDS011;14362;51.902;7.626;2022-12-24T17:23:32;27.70;;;14.38;;
26774;SDS011;14362;51.902;7.626;2022-12-24T17:27:33;28.63;;;14.48;;
26774;SDS011;14362;51.902;7.626;2022-12-24T17:31:35;29.95;;;14.82;;
26774;SDS011;14362;51.902;7.626;2022-12-24T17:35:39;32.05;;;15.70;;
26774;SDS011;14362;51.902;7.626;2022-12-24T17:39:41;28.02;;;14.45;;
26774;SDS011;14362;51.902;7.626;2022-12-24T17:43:43;33.20;;;15.57;;
26774;SDS011;14362;51.902;7.626;2022-12-24T17:47:45;35.30;;;14.80;;
26774;SDS011;14362;51.902;7.626;2022-12-24T17:51:47;25.15;;;13.40;;
26774;SDS011;14362;51.902;7.626;2022-12-24T17:55:49;24.98;;;12.52;;
26774;SDS011;14362;51.902;7.626;2022-12-24T17:59:50;28.98;;;13.70;;
26774;SDS011;14362;51.902;7.626;2022-12-24T18:03:52;25.20;;;13.60;;
26774;SDS011;14362;51.902;7.626;2022-12-24T18:07:54;30.25;;;14.63;;
26774;SDS011;14362;51.902;7.626;2022-12-24T18:11:56;32.22;;;16.92;;
26774;SDS011;14362;51.902;7.626;2022-12-24T18:15:57;28.85;;;16.08;;
26774;SDS011;14362;51.902;7.626;2022-12-24T18:19:58;31.67;;;17.98;;
26774;SDS011;14362;51.902;7.626;2022-12-24T18:24:01;31.05;;;19.63;;
26774;SDS011;14362;51.902;7.626;2022-12-24T18:28:03;41.42;;;26.48;;
26774;SDS011;14362;51.902;7.626;2022-12-24T18:32:04;45.33;;;25.65;;
26774;SDS011;14362;51.902;7.626;2022-12-24T18:36:06;47.80;;;28.23;;
26774;SDS011;14362;51.902;7.626;2022-12-24T18:40:10;49.70;;;28.38;;
26774;SDS011;14362;51.902;7.626;2022-12-24T18:44:12;48.60;;;29.17;;
26774;SDS011;14362;51.902;7.626;2022-12-24T18:48:13;46.67;;;28.27;;
26774;SDS011;14362;51.902;7.626;2022-12-24T18:52:14;36.83;;;25.75;;
26774;SDS011;14362;51.902;7.626;2022-12-24T18:56:18;55.75;;;27.17;;
26774;SDS011;14362;51.902;7.626;2022-12-24T19:00:20;44.35;;;26.10;;
26774;SDS011;14362;51.902;7.626;2022-12-24T19:04:22;46.03;;;26.23;;
26774;SDS011;14362;51.902;7.626;2022-12-24T19:08:23;47.83;;;27.75;;
26774;SDS011;14362;51.902;7.626;2022-12-24T19:12:26;41.95;;;23.88;;
26774;SDS011;14362;51.902;7.626;2022-12-24T19:16:28;37.10;;;20.50;;
26774;SDS011;14362;51.902;7.626;2022-12-24T19:20:30;33.05;;;18.13;;
26774;SDS011;14362;51.902;7.626;2022-12-24T19:24:32;35.05;;;20.90;;
26774;SDS011;14362;51.902;7.626;2022-12-24T19:28:34;41.58;;;21.30;;
26774;SDS011;14362;51.902;7.626;2022-12-24T19:32:36;47.00;;;20.50;;
26774;SDS011;14362;51.902;7.626;2022-12-24T19:36:38;45.45;;;22.33;;
26774;SDS011;14362;51.902;7.626;2022-12-24T19:40:39;37.83;;;20.17;;
26774;SDS011;14362;51.902;7.626;2022-12-24T19:44:42;43.80;;;21.25;;
26774;SDS011;14362;51.902;7.626;2022-12-24T19:48:46;40.97;;;18.42;;
26774;SDS011;14362;51.902;7.626;2022-12-24T19:52:48;32.92;;;17.10;;
26774;SDS011;14362;51.902;7.626;2022-12-24T19:56:50;34.05;;;17.85;;
26774;SDS011;14362;51.902;7.626;2022-12-24T20:00:53;31.77;;;15.38;;
26774;SDS011;14362;51.902;7.626;2022-12-24T20:04:55;46.22;;;22.33;;
26774;SDS011;14362;51.902;7.626;2022-12-24T20:08:57;38.95;;;20.48;;
26774;SDS011;14362;51.902;7.626;2022-12-24T20:12:59;42.85;;;21.98;;
26774;SDS011;14362;51.902;7.626;2022-12-24T20:17:02;45.83;;;29.10;;
26774;SDS011;14362;51.902;7.626;2022-12-24T20:21:04;55.40;;;28.23;;
26774;SDS011;14362;51.902;7.626;2022-12-24T20:25:08;33.50;;;21.38;;
26774;SDS011;14362;51.902;7.626;2022-12-24T20:29:09;39.75;;;22.83;;
26774;SDS011;14362;51.902;7.626;2022-12-24T20:33:12;43.97;;;21.17;;
26774;SDS011;14362;51.902;7.626;2022-12-24T20:37:14;40.67;;;18.60;;
26774;SDS011;14362;51.902;7.626;2022-12-24T20:41:16;33.35;;;15.50;;
26774;SDS011;14362;51.902;7.626;2022-12-24T20:45:19;37.47;;;13.75;;
26774;SDS011;14362;51.902;7.626;2022-12-24T20:49:22;26.60;;;12.32;;
26774;SDS011;14362;51.902;7.626;2022-12-24T20:53:24;26.33;;;12.20;;
26774;SDS011;14362;51.902;7.626;2022-12-24T20:57:25;41.65;;;12.63;;
26774;SDS011;14362;51.902;7.626;2022-12-24T21:01:27;28.02;;;11.98;;
26774;SDS011;14362;51.902;7.626;2022-12-24T21:05:30;32.50;;;14.20;;
26774;SDS011;14362;51.902;7.626;2022-12-24T21:09:32;29.27;;;13.27;;
26774;SDS011;14362;51.902;7.626;2022-12-24T21:13:33;30.27;;;13.05;;
26774;SDS011;14362;51.902;7.626;2022-12-24T21:17:34;27.85;;;14.45;;
26774;SDS011;14362;51.902;7.626;2022-12-24T21:21:37;37.67;;;14.45;;
26774;SDS011;14362;51.902;7.626;2022-12-24T21:25:38;30.65;;;12.93;;
26774;SDS011;14362;51.902;7.626;2022-12-24T21:29:40;31.95;;;12.48;;
26774;SDS011;14362;51.902;7.626;2022-12-24T21:33:41;33.25;;;14.25;;
26774;SDS011;14362;51.902;7.626;2022-12-24T21:37:44;36.75;;;15.23;;
26774;SDS011;14362;51.902;7.626;2022-12-24T21:41:45;31.30;;;13.68;;
26774;SDS011;14362;51.902;7.626;2022-12-24T21:45:47;28.00;;;12.85;;
26774;SDS011;14362;51.902;7.626;2022-12-24T21:49:49;30.45;;;12.57;;
26774;SDS011;14362;51.902;7.626;2022-12-24T21:54:09;28.00;;;12.75;;
26774;SDS011;14362;51.902;7.626;2022-12-24T21:58:30;25.92;;;12.38;;
26774;SDS011;14362;51.902;7.626;2022-12-24T22:02:31;28.90;;;12.32;;
26774;SDS011;14362;51.902;7.626;2022-12-24T22:06:33;34.30;;;14.20;;
26774;SDS011;14362;51.902;7.626;2022-12-24T22:10:53;45.50;;;15.25;;
26774;SDS011;14362;51.902;7.626;2022-12-24T22:15:24;34.38;;;13.25;;
26774;SDS011;14362;51.902;7.626;2022-12-24T22:19:26;37.22;;;13.50;;
26774;SDS011;14362;51.902;7.626;2022-12-24T22:23:28;32.30;;;14.00;;
26774;SDS011;14362;51.902;7.626;2022-12-24T22:27:30;35.78;;;13.27;;
26774;SDS011;14362;51.902;7.626;2022-12-24T22:31:32;28.13;;;11.63;;
26774;SDS011;14362;51.902;7.626;2022-12-24T22:35:35;31.17;;;12.95;;
26774;SDS011;14362;51.902;7.626;2022-12-24T22:39:37;36.92;;;13.10;;
26774;SDS011;14362;51.902;7.626;2022-12-24T22:43:40;34.38;;;13.05;;
26774;SDS011;14362;51.902;7.626;2022-12-24T22:47:42;35.28;;;13.07;;
26774;SDS011;14362;51.902;7.626;2022-12-24T22:51:43;42.25;;;14.02;;
26774;SDS011;14362;51.902;7.626;2022-12-24T22:55:44;32.38;;;12.93;;
26774;SDS011;14362;51.902;7.626;2022-12-24T22:59:56;32.63;;;13.90;;
26774;SDS011;14362;51.902;7.626;2022-12-24T23:03:57;28.65;;;12.93;;
26774;SDS011;14362;51.902;7.626;2022-12-24T23:07:58;37.83;;;13.05;;
26774;SDS011;14362;51.902;7.626;2022-12-24T23:12:00;30.88;;;11.80;;
26774;SDS011;14362;51.902;7.626;2022-12-24T23:16:05;29.42;;;11.80;;
26774;SDS011;14362;51.902;7.626;2022-12-24T23:20:06;38.03;;;15.57;;
26774;SDS011;14362;51.902;7.626;2022-12-24T23:24:09;36.60;;;18.60;;
26774;SDS011;14362;51.902;7.626;2022-12-24T23:28:11;40.97;;;17.55;;
26774;SDS011;14362;51.902;7.626;2022-12-24T23:32:13;33.25;;;16.05;;
26774;SDS011;14362;51.902;7.626;2022-12-24T23:36:15;40.17;;;15.77;;
26774;SDS011;14362;51.902;7.626;2022-12-24T23:40:17;38.35;;;14.57;;
26774;SDS011;14362;51.902;7.626;2022-12-24T23:44:18;39.10;;;14.48;;
26774;SDS011;14362;51.902;7.626;2022-12-24T23:48:22;35.95;;;13.88;;
26774;SDS011;14362;51.902;7.626;2022-12-24T23:52:24;39.55;;;14.43;;
26774;SDS011;14362;51.902;7.626;2022-12-24T23:56:26;38.17;;;15.90;;
